Time;durP1;ratioP1;P1;durP2;ratioP2;P2;SDS_P1;SDS_P2;PMS_P1;PMS_P2;Temp;Humidity;BMP_temperature;BMP_pressure;BME280_temperature;BME280_humidity;BME280_pressure;Samples;Min_cycle;Max_cycle;Signal;HPM_P1;HPM_P2
2021/05/03 00:01:50;;;;;;;6.73;5.53;;;;;;;7.28;65.40;101326.47;5121883;28;20671;-66
2021/05/03 00:04:15;;;;;;;5.10;4.40;;;;;;;7.15;65.26;101325.19;5121924;28;20179;-66
2021/05/03 00:06:41;;;;;;;4.77;4.00;;;;;;;7.21;65.02;101329.69;5122425;28;20206;-65
2021/05/03 00:09:06;;;;;;;6.37;3.60;;;;;;;7.10;65.25;101331.03;5121816;28;20199;-65
2021/05/03 00:11:32;;;;;;;5.30;4.03;;;;;;;7.23;64.74;101333.22;5113411;28;20180;-65
2021/05/03 00:13:57;;;;;;;6.27;4.00;;;;;;;7.20;64.58;101334.00;5101878;28;20172;-66
2021/05/03 00:16:22;;;;;;;4.30;3.90;;;;;;;7.42;64.66;101330.38;5100782;28;20212;-65
2021/05/03 00:18:48;;;;;;;5.50;4.20;;;;;;;7.45;64.44;101336.50;5101313;28;20531;-66
2021/05/03 00:21:16;;;;;;;4.57;4.00;;;;;;;6.74;66.32;101333.31;5101726;28;20183;-66
2021/05/03 00:23:41;;;;;;;7.43;4.57;;;;;;;6.96;66.89;101328.00;5101020;28;20247;-65
2021/05/03 00:26:08;;;;;;;4.70;4.30;;;;;;;6.58;68.76;101341.38;5101740;28;20501;-65
2021/05/03 00:28:33;;;;;;;6.60;5.40;;;;;;;6.57;69.25;101340.47;5121857;28;20203;-65
2021/05/03 00:30:59;;;;;;;5.27;4.77;;;;;;;6.69;68.27;101345.22;5118714;28;20447;-66
2021/05/03 00:33:24;;;;;;;7.23;5.77;;;;;;;6.38;69.10;101344.13;5121505;28;20179;-66
2021/05/03 00:35:50;;;;;;;7.43;5.30;;;;;;;6.73;68.16;101330.66;5121748;28;20602;-65
2021/05/03 00:38:16;;;;;;;6.90;6.30;;;;;;;6.33;69.23;101340.50;5121291;28;20172;-66
2021/05/03 00:40:41;;;;;;;8.57;5.53;;;;;;;6.48;69.71;101331.50;5121253;28;20179;-66
2021/05/03 00:43:07;;;;;;;10.80;5.60;;;;;;;6.37;69.56;101342.38;5121777;28;20406;-66
2021/05/03 00:45:33;;;;;;;7.93;5.47;;;;;;;6.55;69.07;101336.09;5119239;28;20183;-66
2021/05/03 00:47:59;;;;;;;6.70;5.53;;;;;;;6.66;68.29;101345.13;5120337;28;20238;-65
2021/05/03 00:50:29;;;;;;;10.80;5.33;;;;;;;6.56;68.53;101340.44;5120715;28;20432;-67
2021/05/03 00:52:57;;;;;;;6.27;5.40;;;;;;;6.70;68.96;101335.75;5120212;28;20466;-66
2021/05/03 00:55:24;;;;;;;6.97;5.30;;;;;;;6.51;68.75;101332.50;5120169;27;20413;-67
2021/05/03 00:57:50;;;;;;;5.70;5.07;;;;;;;6.86;68.07;101338.03;5116438;28;20414;-66
2021/05/03 01:00:16;;;;;;;7.10;5.60;;;;;;;6.69;68.90;101333.97;5099742;28;20426;-65
2021/05/03 01:02:41;;;;;;;8.13;5.13;;;;;;;6.64;69.51;101336.41;5100632;28;20406;-66
2021/05/03 01:05:08;;;;;;;6.37;5.47;;;;;;;7.00;67.53;101341.09;5099976;28;20434;-66
2021/05/03 01:07:34;;;;;;;9.20;5.57;;;;;;;6.46;69.23;101340.94;5099990;28;20220;-65
2021/05/03 01:09:59;;;;;;;6.67;5.30;;;;;;;6.54;68.82;101339.50;5100454;28;20733;-66
2021/05/03 01:12:25;;;;;;;6.90;5.50;;;;;;;6.45;69.17;101341.75;5100541;28;20267;-66
2021/05/03 01:14:50;;;;;;;8.00;5.57;;;;;;;6.52;68.57;101334.28;5118709;28;20226;-67
2021/05/03 01:17:16;;;;;;;5.40;4.90;;;;;;;6.44;69.42;101348.66;5113193;28;20500;-66
2021/05/03 01:19:41;;;;;;;8.07;5.60;;;;;;;6.62;68.35;101335.47;5100629;28;20569;-65
2021/05/03 01:22:07;;;;;;;8.10;6.03;;;;;;;6.68;68.30;101338.25;5099667;28;20414;-65
2021/05/03 01:24:32;;;;;;;6.73;5.50;;;;;;;6.57;69.24;101344.78;5100255;28;20231;-65
2021/05/03 01:26:58;;;;;;;8.70;5.20;;;;;;;6.50;68.88;101343.69;5120939;28;20167;-65
2021/05/03 01:29:23;;;;;;;6.33;5.50;;;;;;;6.45;68.90;101340.03;5120293;28;20555;-65
2021/05/03 01:31:50;;;;;;;11.00;5.70;;;;;;;5.94;70.01;101351.09;5115016;28;20513;-65
2021/05/03 01:34:16;;;;;;;8.67;6.23;;;;;;;6.57;68.23;101355.16;5100438;28;20305;-65
2021/05/03 01:36:43;;;;;;;8.23;5.50;;;;;;;6.13;69.36;101355.28;5098842;28;20410;-65
2021/05/03 01:39:11;;;;;;;5.70;5.20;;;;;;;6.06;69.01;101351.59;5099851;28;20407;-66
2021/05/03 01:41:40;;;;;;;5.73;5.23;;;;;;;6.28;69.81;101343.72;5099900;28;20422;-65
2021/05/03 01:44:07;;;;;;;7.00;6.10;;;;;;;6.20;69.08;101348.63;5099798;28;20741;-66
2021/05/03 01:46:34;;;;;;;6.80;5.70;;;;;;;6.11;68.53;101350.88;5082463;28;20517;-65
2021/05/03 01:49:01;;;;;;;6.33;5.30;;;;;;;6.23;68.59;101359.09;5100760;28;20465;-66
2021/05/03 01:51:27;;;;;;;6.13;4.77;;;;;;;5.64;70.48;101369.78;5099567;28;20540;-65
2021/05/03 01:53:52;;;;;;;5.40;4.97;;;;;;;6.25;68.03;101357.44;5099190;28;20411;-65
2021/05/03 01:56:18;;;;;;;5.70;5.20;;;;;;;6.05;68.77;101362.75;5099228;28;20422;-66
2021/05/03 01:58:44;;;;;;;6.33;5.40;;;;;;;6.07;68.69;101366.31;5099392;28;20172;-66
2021/05/03 02:01:09;;;;;;;6.53;4.70;;;;;;;6.16;68.10;101358.00;5098664;28;20177;-66
2021/05/03 02:03:40;;;;;;;7.70;5.50;;;;;;;6.19;68.37;101365.00;5099618;28;20183;-67
2021/05/03 02:06:13;;;;;;;5.80;4.67;;;;;;;6.23;68.23;101365.16;5098579;28;20176;-65
2021/05/03 02:08:39;;;;;;;5.07;4.67;;;;;;;6.29;68.22;101364.53;5099111;28;20733;-67
2021/05/03 02:11:05;;;;;;;7.20;4.93;;;;;;;5.85;69.45;101374.03;5098405;28;20695;-65
2021/05/03 02:13:30;;;;;;;5.93;4.50;;;;;;;6.39;67.88;101365.75;5099049;28;20172;-65
2021/05/03 02:15:56;;;;;;;5.00;4.50;;;;;;;6.38;67.98;101359.66;5099627;28;20402;-66
2021/05/03 02:18:24;;;;;;;5.20;4.70;;;;;;;6.14;69.14;101369.97;5098174;28;20254;-67
2021/05/03 02:20:49;;;;;;;5.60;4.87;;;;;;;5.96;69.72;101371.84;5098790;28;20182;-65
2021/05/03 02:23:15;;;;;;;5.10;4.60;;;;;;;6.07;69.30;101363.72;5099243;28;20414;-66
2021/05/03 02:25:40;;;;;;;5.30;4.80;;;;;;;6.11;69.89;101372.47;5098874;28;20230;-66
2021/05/03 02:28:05;;;;;;;7.13;5.10;;;;;;;5.95;69.75;101373.53;5098202;28;20204;-66
2021/05/03 02:30:31;;;;;;;5.80;4.80;;;;;;;6.13;70.05;101376.00;5099147;28;20183;-65
2021/05/03 02:32:56;;;;;;;48.63;27.73;;;;;;;5.96;70.42;101377.91;5098600;28;20211;-65
2021/05/03 02:35:24;;;;;;;9.80;7.67;;;;;;;5.90;70.51;101375.09;5098795;28;20260;-65
2021/05/03 02:37:55;;;;;;;7.27;6.53;;;;;;;5.83;69.94;101373.06;5098875;28;20164;-65
2021/05/03 02:40:21;;;;;;;5.30;4.80;;;;;;;6.49;67.81;101375.59;5098487;28;20421;-65
2021/05/03 02:42:49;;;;;;;7.53;5.43;;;;;;;6.17;69.28;101364.03;5098675;28;20422;-65
2021/05/03 02:45:14;;;;;;;5.53;4.90;;;;;;;5.86;69.79;101378.38;5098951;28;20214;-65
2021/05/03 02:47:40;;;;;;;7.40;6.00;;;;;;;5.76;70.94;101376.25;5098562;28;20486;-65
2021/05/03 02:50:07;;;;;;;5.57;4.80;;;;;;;6.07;69.27;101368.00;5098402;28;20572;-65
2021/05/03 02:52:32;;;;;;;5.70;5.13;;;;;;;6.15;70.14;101376.94;5098496;28;20187;-65
2021/05/03 02:54:58;;;;;;;7.13;5.70;;;;;;;5.76;70.80;101376.25;5098476;28;20410;-65
2021/05/03 02:57:23;;;;;;;5.10;4.60;;;;;;;5.93;70.78;101366.53;5098440;28;20179;-65
2021/05/03 02:59:48;;;;;;;4.70;4.30;;;;;;;5.66;72.21;101375.88;5098921;28;20180;-66
2021/05/03 03:02:14;;;;;;;7.10;5.07;;;;;;;6.34;71.57;101373.31;5098069;28;20187;-66
2021/05/03 03:04:39;;;;;;;5.80;5.20;;;;;;;5.99;72.19;101369.41;5098315;28;20259;-67
2021/05/03 03:07:08;;;;;;;7.30;6.07;;;;;;;6.04;71.82;101379.09;5098700;28;20195;-66
2021/05/03 03:09:33;;;;;;;9.33;6.57;;;;;;;6.30;72.43;101374.03;5097397;28;20211;-66
2021/05/03 03:11:59;;;;;;;6.53;5.70;;;;;;;5.63;72.33;101385.19;5098197;28;20414;-66
2021/05/03 03:14:25;;;;;;;11.87;6.87;;;;;;;5.63;72.22;101386.09;5098730;28;20169;-65
2021/05/03 03:16:50;;;;;;;6.23;5.63;;;;;;;5.95;71.92;101383.88;5098205;28;20693;-66
2021/05/03 03:19:15;;;;;;;6.63;6.03;;;;;;;6.12;71.13;101375.94;5098138;28;20529;-66
2021/05/03 03:21:41;;;;;;;6.80;5.97;;;;;;;6.22;71.36;101384.13;5098599;28;20277;-66
2021/05/03 03:24:07;;;;;;;7.70;6.67;;;;;;;6.14;70.62;101392.41;5097397;28;20186;-66
2021/05/03 03:26:32;;;;;;;7.03;5.87;;;;;;;5.90;72.22;101388.03;5098030;28;20176;-65
2021/05/03 03:28:57;;;;;;;8.90;7.33;;;;;;;5.99;72.08;101390.13;5101200;28;20265;-65
2021/05/03 03:31:23;;;;;;;6.60;5.93;;;;;;;5.81;71.34;101392.84;5101942;28;20168;-65
2021/05/03 03:33:48;;;;;;;7.87;6.47;;;;;;;5.63;72.25;101390.38;5102023;28;20179;-68
2021/05/03 03:36:14;;;;;;;10.23;6.87;;;;;;;5.68;72.01;101388.88;5102448;28;20168;-66
2021/05/03 03:38:39;;;;;;;6.70;6.10;;;;;;;5.68;71.45;101400.13;5102152;28;20225;-66
2021/05/03 03:41:04;;;;;;;6.80;6.20;;;;;;;5.75;71.01;101393.47;5101810;28;20208;-65
2021/05/03 03:43:30;;;;;;;6.97;6.13;;;;;;;5.98;70.44;101399.59;5102509;28;20175;-66
2021/05/03 03:45:55;;;;;;;6.30;5.70;;;;;;;5.82;70.93;101387.72;5101784;28;20175;-65
2021/05/03 03:48:21;;;;;;;9.10;5.73;;;;;;;5.99;71.20;101400.47;5103014;28;20591;-66
2021/05/03 03:50:46;;;;;;;6.30;5.67;;;;;;;5.57;71.78;101398.78;5102522;28;20579;-66
2021/05/03 03:53:11;;;;;;;6.60;5.90;;;;;;;6.10;70.89;101398.28;5101775;28;20180;-65
2021/05/03 03:55:37;;;;;;;5.90;5.40;;;;;;;5.74;71.61;101395.16;5101681;28;20545;-65
2021/05/03 03:58:03;;;;;;;6.87;5.90;;;;;;;5.94;71.27;101392.50;5102188;28;20175;-65
2021/05/03 04:00:29;;;;;;;6.47;5.73;;;;;;;5.87;71.51;101393.06;5101257;28;20410;-65
2021/05/03 04:02:55;;;;;;;8.00;5.97;;;;;;;5.84;71.32;101392.94;5101379;28;20493;-65
2021/05/03 04:08:02;;;;;;;6.63;6.00;;;;;;;5.47;72.30;101402.69;5101370;28;21060;-65
2021/05/03 04:23:55;;;;;;;8.80;6.00;;;;;;;6.74;68.61;101392.03;5101302;28;20408;-66
2021/05/03 04:26:22;;;;;;;7.00;5.90;;;;;;;5.92;70.28;101407.06;5101121;28;20441;-65
2021/05/03 04:28:49;;;;;;;6.33;5.73;;;;;;;6.48;67.72;101401.44;5100899;28;20458;-65
2021/05/03 04:31:15;;;;;;;5.90;5.30;;;;;;;6.91;66.60;101397.81;5101138;28;20874;-65
2021/05/03 04:33:41;;;;;;;5.90;5.30;;;;;;;6.45;67.47;101406.50;5101419;28;20411;-65
2021/05/03 04:36:06;;;;;;;5.43;4.90;;;;;;;6.38;68.79;101403.69;5100875;28;20410;-65
2021/05/03 04:38:32;;;;;;;5.27;4.67;;;;;;;6.23;69.45;101416.94;5100668;28;20178;-65
2021/05/03 04:40:57;;;;;;;5.60;5.00;;;;;;;7.63;65.59;101411.44;5099836;28;20530;-65
2021/05/03 04:43:23;;;;;;;5.83;5.30;;;;;;;8.09;63.26;101408.59;5100727;28;20263;-66
2021/05/03 04:45:48;;;;;;;5.93;5.10;;;;;;;7.01;66.76;101415.47;5100654;28;20172;-67
2021/05/03 04:48:13;;;;;;;5.17;4.70;;;;;;;8.03;64.35;101411.00;5101003;28;20180;-65
2021/05/03 04:50:39;;;;;;;7.17;5.40;;;;;;;8.22;63.36;101411.56;5100745;28;20172;-65
2021/05/03 04:53:04;;;;;;;10.23;6.90;;;;;;;8.46;62.16;101410.53;5100560;28;20255;-65
2021/05/03 04:55:29;;;;;;;5.43;4.47;;;;;;;7.38;64.76;101411.53;5100826;28;20183;-65
2021/05/03 04:57:55;;;;;;;5.10;4.70;;;;;;;7.27;66.78;101417.19;5100356;28;20175;-66
2021/05/03 05:00:20;;;;;;;7.97;6.17;;;;;;;6.30;68.15;101431.00;5100350;28;20168;-66
2021/05/03 05:02:46;;;;;;;6.80;5.43;;;;;;;6.98;67.40;101420.53;5100823;28;20164;-66
2021/05/03 05:05:12;;;;;;;6.83;5.53;;;;;;;6.13;68.95;101430.38;5100271;28;20567;-66
2021/05/03 05:07:38;;;;;;;8.00;5.53;;;;;;;6.62;67.67;101426.16;5100480;28;20195;-66
2021/05/03 05:10:05;;;;;;;6.50;5.70;;;;;;;6.86;67.55;101427.84;5100563;28;20394;-65
2021/05/03 05:12:31;;;;;;;5.77;5.20;;;;;;;6.55;68.64;101424.19;5100023;28;20429;-66
2021/05/03 05:14:56;;;;;;;6.57;5.97;;;;;;;6.36;69.56;101428.66;5100121;28;20422;-66
2021/05/03 05:17:21;;;;;;;7.57;5.83;;;;;;;6.35;69.41;101432.06;5100378;28;20168;-66
2021/05/03 05:19:47;;;;;;;7.97;6.00;;;;;;;6.74;67.66;101429.19;5100014;28;20217;-66
2021/05/03 05:22:13;;;;;;;5.70;5.10;;;;;;;8.63;62.44;101421.44;5099883;28;20571;-66
2021/05/03 05:24:38;;;;;;;5.27;4.60;;;;;;;9.66;58.20;101415.47;5099937;28;20216;-65
2021/05/03 05:27:04;;;;;;;5.37;4.87;;;;;;;10.94;52.42;101410.44;5099820;28;20578;-65
2021/05/03 05:29:29;;;;;;;4.73;4.33;;;;;;;10.85;51.88;101415.47;5099852;28;20249;-66
2021/05/03 05:31:55;;;;;;;4.53;4.13;;;;;;;12.21;48.25;101409.91;5099436;28;20587;-66
2021/05/03 05:34:20;;;;;;;4.50;4.10;;;;;;;11.69;48.81;101413.47;5099499;28;20168;-66
2021/05/03 05:36:46;;;;;;;4.73;4.23;;;;;;;11.62;49.63;101415.13;5100182;28;20209;-65
2021/05/03 05:39:11;;;;;;;4.67;4.00;;;;;;;12.10;47.45;101415.00;5099782;28;20168;-66
2021/05/03 05:41:39;;;;;;;4.73;4.33;;;;;;;13.01;45.35;101412.59;5099611;28;20561;-65
2021/05/03 05:44:06;;;;;;;7.17;3.70;;;;;;;13.68;44.06;101412.38;5099891;28;20165;-66
2021/05/03 05:46:31;;;;;;;5.10;4.53;;;;;;;13.21;45.07;101416.28;5099820;28;20410;-66
2021/05/03 05:48:57;;;;;;;4.40;4.00;;;;;;;11.62;48.83;101424.66;5099547;28;20462;-66
2021/05/03 05:51:22;;;;;;;4.50;4.10;;;;;;;9.82;53.77;101442.75;5099133;28;20160;-66
2021/05/03 05:53:47;;;;;;;4.80;4.40;;;;;;;11.17;50.29;101434.34;5099137;28;20175;-66
2021/05/03 05:56:12;;;;;;;4.83;4.43;;;;;;;9.52;54.75;101442.03;5099329;28;20183;-65
2021/05/03 05:58:38;;;;;;;4.67;4.20;;;;;;;12.67;46.79;101433.16;5099452;28;20447;-65
2021/05/03 06:01:03;;;;;;;5.60;4.80;;;;;;;12.58;46.71;101436.53;5099060;28;20549;-66
2021/05/03 06:03:29;;;;;;;6.27;4.27;;;;;;;13.87;43.57;101428.22;5099153;28;20180;-66
2021/05/03 06:05:57;;;;;;;4.30;3.90;;;;;;;11.87;49.23;101431.16;5099441;28;20165;-66
2021/05/03 06:08:22;;;;;;;4.63;4.23;;;;;;;12.91;46.22;101429.97;5098952;28;20256;-67
2021/05/03 06:10:47;;;;;;;5.87;4.30;;;;;;;13.09;45.53;101429.25;5098770;28;20689;-67
2021/05/03 06:13:13;;;;;;;5.03;4.27;;;;;;;13.22;44.72;101427.63;5099377;28;20168;-66
2021/05/03 06:15:39;;;;;;;4.80;4.40;;;;;;;12.71;46.52;101432.34;5098878;28;20258;-67
2021/05/03 06:18:05;;;;;;;4.57;4.00;;;;;;;12.10;48.47;101426.31;5101879;28;20424;-66
2021/05/03 06:20:30;;;;;;;4.70;4.30;;;;;;;12.13;48.71;101436.78;5108295;28;20155;-66
2021/05/03 06:23:02;;;;;;;4.60;4.20;;;;;;;11.41;49.40;101430.41;5119100;28;20680;-66
2021/05/03 06:25:28;;;;;;;4.77;4.27;;;;;;;12.86;46.30;101418.56;5101697;28;20245;-66
2021/05/03 06:27:54;;;;;;;5.07;4.53;;;;;;;12.80;46.41;101425.47;5098992;28;20443;-66
2021/05/03 06:30:22;;;;;;;4.80;4.20;;;;;;;11.16;50.58;101424.75;5098219;28;20196;-66
2021/05/03 06:32:47;;;;;;;4.50;4.10;;;;;;;12.72;47.48;101429.75;5098388;28;20797;-65
2021/05/03 06:35:13;;;;;;;4.67;4.27;;;;;;;12.63;48.01;101432.25;5098771;28;20477;-66
2021/05/03 06:37:38;;;;;;;4.40;4.00;;;;;;;13.64;44.63;101413.22;5115252;28;20453;-67
2021/05/03 06:40:04;;;;;;;5.00;4.50;;;;;;;14.55;42.43;101412.88;5118744;28;20289;-65
2021/05/03 06:42:29;;;;;;;4.83;3.90;;;;;;;15.37;40.46;101413.06;5118866;28;20163;-66
2021/05/03 06:44:54;;;;;;;4.93;4.30;;;;;;;15.11;41.11;101412.19;5118621;28;20171;-66
2021/05/03 06:47:19;;;;;;;7.67;5.63;;;;;;;15.68;38.73;101410.44;5118689;28;20248;-66
2021/05/03 06:49:45;;;;;;;4.20;3.80;;;;;;;16.98;38.26;101410.94;5118872;28;20183;-62
2021/05/03 06:52:10;;;;;;;3.80;3.50;;;;;;;17.22;38.08;101411.66;5118516;28;20205;-62
2021/05/03 06:54:35;;;;;;;5.70;5.20;;;;;;;17.82;35.37;101401.50;5118296;28;20521;-63
2021/05/03 06:57:01;;;;;;;4.00;3.60;;;;;;;17.20;37.05;101401.13;5118951;28;20506;-64
2021/05/03 06:59:26;;;;;;;4.07;3.67;;;;;;;16.45;38.46;101411.19;5118316;28;20175;-63
2021/05/03 07:01:53;;;;;;;5.97;3.50;;;;;;;15.87;38.84;101406.06;5117807;28;20351;-63
2021/05/03 07:04:18;;;;;;;3.80;3.50;;;;;;;17.22;36.29;101398.50;5118261;28;20178;-62
2021/05/03 07:06:43;;;;;;;3.90;3.60;;;;;;;15.64;40.10;101409.56;5118246;28;20409;-62
2021/05/03 07:09:09;;;;;;;6.33;3.70;;;;;;;15.41;39.81;101410.47;5118288;28;20474;-61
2021/05/03 07:11:35;;;;;;;10.00;4.07;;;;;;;16.75;37.02;101409.28;5118649;28;20196;-56
2021/05/03 07:14:01;;;;;;;5.87;4.30;;;;;;;16.66;37.64;101404.94;5102466;28;20428;-56
2021/05/03 07:16:26;;;;;;;4.50;3.60;;;;;;;15.57;38.55;101413.94;5097881;28;20440;-60
2021/05/03 07:18:51;;;;;;;4.20;3.80;;;;;;;16.86;37.30;101408.34;5097917;28;20169;-55
2021/05/03 07:21:17;;;;;;;4.70;3.90;;;;;;;15.75;38.14;101413.06;5097653;28;20178;-57
2021/05/03 07:23:42;;;;;;;4.10;3.73;;;;;;;17.96;33.75;101411.06;5097897;28;20168;-59
2021/05/03 07:26:09;;;;;;;4.50;3.60;;;;;;;19.19;32.34;101398.91;5096928;28;20581;-58
2021/05/03 07:28:35;;;;;;;6.60;3.30;;;;;;;18.45;33.85;101401.69;5097562;28;20625;-58
2021/05/03 07:31:00;;;;;;;4.13;3.40;;;;;;;15.43;37.14;101424.47;5098110;28;20456;-57
2021/05/03 07:33:27;;;;;;;4.50;3.73;;;;;;;16.09;41.66;101413.03;5097900;28;20172;-59
2021/05/03 07:35:52;;;;;;;6.50;3.27;;;;;;;16.83;36.01;101402.22;5097939;28;20437;-57
2021/05/03 07:38:18;;;;;;;4.83;4.33;;;;;;;16.11;38.17;101406.00;5098371;28;20811;-60
2021/05/03 07:40:43;;;;;;;5.10;4.30;;;;;;;18.48;32.74;101402.56;5097766;28;20172;-61
2021/05/03 07:43:09;;;;;;;4.23;3.60;;;;;;;17.04;36.06;101412.69;5097953;28;20176;-60
2021/05/03 07:45:34;;;;;;;9.83;5.40;;;;;;;19.48;32.79;101394.94;5104060;28;20244;-60
2021/05/03 07:48:00;;;;;;;6.63;3.67;;;;;;;17.64;34.31;101399.91;5118617;28;20274;-60
2021/05/03 07:50:25;;;;;;;3.67;3.10;;;;;;;16.61;35.75;101400.59;5117683;28;20278;-61
2021/05/03 07:52:50;;;;;;;5.20;3.40;;;;;;;15.82;37.94;101400.84;5118515;28;20180;-64
2021/05/03 07:55:16;;;;;;;3.90;3.60;;;;;;;15.59;37.85;101413.97;5117988;28;20179;-64
2021/05/03 07:57:42;;;;;;;3.83;3.43;;;;;;;14.59;41.34;101414.63;5117905;28;20163;-64
2021/05/03 08:00:08;;;;;;;3.90;3.57;;;;;;;14.82;40.15;101412.13;5118622;28;20419;-64
2021/05/03 08:02:33;;;;;;;3.57;3.27;;;;;;;13.52;42.51;101419.22;5117793;28;20197;-64
2021/05/03 08:04:58;;;;;;;4.63;4.00;;;;;;;14.53;40.81;101419.84;5118258;28;20419;-65
2021/05/03 08:07:24;;;;;;;4.30;4.00;;;;;;;13.41;42.45;101434.84;5118474;28;20172;-65
2021/05/03 08:09:49;;;;;;;4.53;4.20;;;;;;;13.06;43.75;101426.63;5117994;28;20257;-65
2021/05/03 08:12:15;;;;;;;4.80;4.40;;;;;;;13.02;44.24;101430.94;5117536;28;20174;-64
2021/05/03 08:14:40;;;;;;;4.53;4.00;;;;;;;11.89;46.16;101429.47;5120388;28;20160;-65
2021/05/03 08:17:08;;;;;;;5.03;4.10;;;;;;;11.77;47.88;101427.53;5121481;28;20167;-65
2021/05/03 08:19:34;;;;;;;4.50;4.10;;;;;;;11.08;48.41;101435.06;5121416;28;20232;-64
2021/05/03 08:22:01;;;;;;;4.33;3.70;;;;;;;11.02;50.22;101432.31;5121493;28;20388;-63
2021/05/03 08:24:31;;;;;;;4.50;4.10;;;;;;;11.50;48.86;101442.75;5121220;28;20483;-66
2021/05/03 08:26:58;;;;;;;5.00;4.60;;;;;;;12.02;47.34;101435.78;5121283;28;20875;-64
2021/05/03 08:29:25;;;;;;;5.00;4.60;;;;;;;11.89;47.97;101437.31;5121713;28;20541;-65
2021/05/03 08:31:51;;;;;;;5.27;4.70;;;;;;;11.73;47.94;101435.28;5121110;28;20445;-64
2021/05/03 08:34:16;;;;;;;4.27;3.93;;;;;;;12.13;47.13;101434.19;5121283;28;20406;-64
2021/05/03 08:36:42;;;;;;;6.30;4.23;;;;;;;13.37;44.73;101427.81;5121003;28;20260;-63
2021/05/03 08:39:07;;;;;;;4.10;3.70;;;;;;;14.25;44.32;101419.72;5121247;28;20172;-64
2021/05/03 08:41:34;;;;;;;4.50;4.10;;;;;;;14.23;42.81;101414.44;5120956;28;20164;-65
2021/05/03 08:44:00;;;;;;;6.23;4.20;;;;;;;12.97;45.26;101427.38;5121241;27;20252;-65
2021/05/03 08:46:29;;;;;;;4.40;4.10;;;;;;;12.54;46.34;101432.13;5115329;27;20434;-65
2021/05/03 08:49:05;;;;;;;4.50;4.10;;;;;;;13.01;46.32;101437.03;5135251;27;20297;-65
2021/05/03 08:51:42;;;;;;;4.20;3.80;;;;;;;11.99;47.27;101433.13;5135502;27;20380;-64
2021/05/03 08:56:38;;;;;;;4.67;4.27;;;;;;;13.00;46.07;101424.78;5120888;27;20388;-63
2021/05/03 08:59:04;;;;;;;5.57;4.70;;;;;;;11.82;48.39;101429.34;5120676;28;20437;-64
2021/05/03 09:01:30;;;;;;;4.87;4.47;;;;;;;11.12;50.72;101433.38;5120947;28;20175;-63
2021/05/03 09:03:56;;;;;;;4.80;4.30;;;;;;;10.98;51.42;101438.34;5119766;28;20213;-64
2021/05/03 09:06:21;;;;;;;5.90;4.80;;;;;;;12.26;48.62;101431.78;5120059;28;20679;-66
2021/05/03 09:09:00;;;;;;;4.70;4.40;;;;;;;12.29;47.70;101426.56;5121080;28;20511;-65
2021/05/03 09:11:25;;;;;;;5.10;4.70;;;;;;;11.79;48.18;101427.56;5126069;27;20178;-66
2021/05/03 09:13:50;;;;;;;4.83;4.40;;;;;;;11.60;50.19;101432.47;5139512;27;20684;-65
2021/05/03 09:16:23;;;;;;;5.53;4.90;;;;;;;11.95;49.27;101423.47;5141062;27;20175;-66
2021/05/03 09:18:50;;;;;;;5.80;5.27;;;;;;;12.42;47.79;101418.03;5127362;27;20191;-65
2021/05/03 09:21:18;;;;;;;5.80;5.30;;;;;;;11.70;50.11;101428.28;5125675;27;20460;-65
2021/05/03 09:24:02;;;;;;;5.73;5.20;;;;;;;11.33;52.46;101435.50;5107630;27;20827;-66
2021/05/03 09:26:40;;;;;;;6.17;5.17;;;;;;;10.68;53.05;101433.41;5121168;27;20698;-66
2021/05/03 09:29:31;;;;;;;6.80;5.67;;;;;;;10.45;53.87;101433.81;5127118;27;20543;-65
2021/05/03 09:32:01;;;;;;;5.80;5.30;;;;;;;10.94;53.21;101429.56;5120040;28;20659;-66
2021/05/03 09:34:30;;;;;;;5.53;5.07;;;;;;;10.71;53.52;101428.25;5120149;28;20833;-65
2021/05/03 09:37:16;;;;;;;5.83;5.33;;;;;;;11.03;52.93;101421.03;5136189;27;20424;-66
2021/05/03 09:39:43;;;;;;;5.87;5.37;;;;;;;11.00;52.30;101421.00;5132108;27;20537;-67
2021/05/03 09:42:08;;;;;;;8.40;7.70;;;;;;;11.25;52.69;101431.88;5117404;28;20418;-67
2021/05/03 09:44:34;;;;;;;10.40;9.60;;;;;;;11.07;52.95;101422.84;5119798;27;20429;-66
2021/05/03 09:46:59;;;;;;;10.13;9.30;;;;;;;10.75;54.00;101410.06;5120242;28;20180;-66
2021/05/03 09:49:24;;;;;;;10.07;9.27;;;;;;;11.29;53.20;101425.84;5119788;28;20215;-66
2021/05/03 09:51:59;;;;;;;10.90;10.00;;;;;;;12.16;50.67;101422.03;5119494;28;20175;-65
2021/05/03 09:54:29;;;;;;;9.33;8.63;;;;;;;13.96;45.23;101423.03;5099177;28;20167;-66
2021/05/03 09:57:04;;;;;;;9.33;8.47;;;;;;;13.33;46.55;101423.41;5099082;28;20418;-65
2021/05/03 09:59:43;;;;;;;8.97;8.27;;;;;;;14.14;44.39;101411.81;5099155;28;20423;-65
2021/05/03 10:02:27;;;;;;;8.57;7.87;;;;;;;13.75;45.53;101405.44;5098829;28;20419;-66
2021/05/03 10:07:39;;;;;;;8.17;7.57;;;;;;;12.08;49.31;101411.47;5098806;28;20392;-66
2021/05/03 10:12:33;;;;;;;8.20;7.33;;;;;;;12.48;47.15;101413.75;5098467;28;20505;-66
2021/05/03 10:15:02;;;;;;;7.80;7.20;;;;;;;12.27;47.70;101413.50;5098648;28;20509;-65
2021/05/03 10:17:29;;;;;;;7.87;7.27;;;;;;;12.02;49.02;101403.53;5099205;28;20412;-65
2021/05/03 10:19:58;;;;;;;6.30;5.80;;;;;;;11.94;49.05;101408.63;5097952;28;20450;-66
2021/05/03 10:22:24;;;;;;;5.70;5.30;;;;;;;11.42;50.52;101404.34;5098379;28;20616;-68
2021/05/03 10:24:52;;;;;;;6.90;6.40;;;;;;;12.29;49.32;101401.28;5098570;28;20527;-66
2021/05/03 10:27:20;;;;;;;5.57;5.17;;;;;;;12.56;47.12;101399.91;5119686;27;20486;-67
2021/05/03 10:29:46;;;;;;;5.83;5.33;;;;;;;12.61;47.21;101392.97;5139257;27;20593;-67
2021/05/03 10:32:22;;;;;;;5.60;5.20;;;;;;;13.95;44.94;101385.47;5138226;27;20428;-66
2021/05/03 10:34:51;;;;;;;6.00;5.50;;;;;;;14.29;42.96;101390.88;5139335;27;20438;-66
2021/05/03 10:37:25;;;;;;;5.90;5.50;;;;;;;14.08;43.42;101378.53;5127508;27;20513;-65
2021/05/03 10:39:51;;;;;;;6.50;5.90;;;;;;;13.94;43.25;101377.59;5103311;28;20426;-65
2021/05/03 10:42:16;;;;;;;7.00;6.50;;;;;;;13.37;45.73;101378.06;5111258;28;20409;-65
2021/05/03 10:45:09;;;;;;;6.90;6.40;;;;;;;12.41;46.70;101384.91;5113947;28;20811;-65
2021/05/03 10:47:42;;;;;;;8.33;7.60;;;;;;;11.38;50.29;101381.63;5118670;28;20178;-65
2021/05/03 10:50:30;;;;;;;8.63;7.93;;;;;;;11.26;50.92;101371.88;5118345;28;20429;-65
2021/05/03 10:53:45;;;;;;;8.47;7.83;;;;;;;11.83;49.74;101382.34;5103942;28;20404;-64
2021/05/03 10:56:09;;;;;;;9.07;8.37;;;;;;;12.32;48.10;101371.69;5097861;28;20410;-64
2021/05/03 10:59:00;;;;;;;9.37;8.60;;;;;;;12.50;46.69;101375.41;5098124;28;20424;-65
2021/05/03 11:01:25;;;;;;;8.90;8.20;;;;;;;12.38;47.10;101363.94;5099560;28;20451;-64
2021/05/03 11:03:56;;;;;;;9.30;8.60;;;;;;;11.70;49.16;101368.19;5099874;28;20867;-64
2021/05/03 11:06:37;;;;;;;8.97;8.27;;;;;;;11.92;49.75;101355.44;5103085;28;20502;-66
2021/05/03 11:09:38;;;;;;;8.60;7.90;;;;;;;11.09;51.07;101365.47;5102649;28;20479;-66
2021/05/03 11:12:07;;;;;;;8.90;8.20;;;;;;;11.77;50.15;101367.44;5115877;28;20433;-65
2021/05/03 11:14:34;;;;;;;8.13;7.53;;;;;;;11.58;49.87;101361.09;5100471;28;20701;-67
2021/05/03 11:22:09;;;;;;;8.80;8.17;;;;;;;11.71;49.92;101354.28;5098923;28;20408;-66
2021/05/03 11:30:15;;;;;;;9.33;8.53;;;;;;;11.12;51.57;101361.19;5132569;27;20476;-66
2021/05/03 11:32:40;;;;;;;10.37;9.37;;;;;;;11.45;51.14;101357.38;5097566;28;20880;-66
2021/05/03 11:35:36;;;;;;;10.17;9.33;;;;;;;11.88;49.27;101353.66;5097800;28;20393;-65
2021/05/03 11:38:09;;;;;;;10.40;9.40;;;;;;;10.35;54.06;101361.47;5099077;28;20180;-66
2021/05/03 11:41:14;;;;;;;10.30;9.50;;;;;;;11.03;52.22;101354.94;5102870;28;20403;-67
2021/05/03 11:44:12;;;;;;;10.80;9.90;;;;;;;10.70;52.83;101356.97;5099380;28;20438;-67
2021/05/03 11:46:38;;;;;;;11.20;10.17;;;;;;;11.66;50.18;101355.09;5117993;28;20481;-66
2021/05/03 11:49:09;;;;;;;10.20;9.40;;;;;;;11.84;49.90;101359.69;5113768;28;20468;-67
2021/05/03 11:52:07;;;;;;;10.30;9.50;;;;;;;11.26;51.12;101352.72;5115789;28;20646;-67
2021/05/03 11:54:34;;;;;;;10.50;9.70;;;;;;;11.35;50.96;101355.50;5095344;28;20450;-67
2021/05/03 11:57:03;;;;;;;10.80;9.90;;;;;;;11.44;51.13;101360.84;5103130;28;20579;-65
2021/05/03 11:59:29;;;;;;;11.67;9.93;;;;;;;11.01;51.82;101360.13;5106113;28;20463;-66
2021/05/03 12:02:05;;;;;;;11.40;10.50;;;;;;;10.70;53.07;101359.56;5112724;28;20759;-66
2021/05/03 12:04:32;;;;;;;12.27;11.17;;;;;;;11.15;52.24;101362.09;5105020;28;20191;-67
2021/05/03 12:06:57;;;;;;;10.90;10.10;;;;;;;10.89;52.52;101357.28;5109612;28;20750;-66